Accueil
METAR-TAF:

METAR-TAF

Aéroports :

Prato Nevoso, Italie

Monte Malanotte

latitude: 44-15N, longitude: 007-48E, altitude: 1741 m

Observation

Le bulletin a été fait il y a 1 heure et 16 minutes, à 06:55 UTC
Vent 3 kt de ouest
Température 10°C
Humidité 93%
Pression 1014 hPa
Visibilité: 3000 m
Nuages fragmentés à une hauteur de 1500 ft
Nuages épars à une hauteur de 2000 ft
brume

METAR: LIMY 220655Z 28003KT 3000 BR BKN015 SCT020 10/09 Q1014 RMK OVC VAL NEBBIA SCT VIS MIN 3000

Heure: 10:11 (08:11 UTC)


TAF: absent

Observations et prévisions météorologiques de plus de 4000 aéroports (messages METAR et TAF).

Les stations disponibles sont représentées par des disques jaunes et rouges sur la carte.

Passer la souris dessus pour voir le nom de la station.

Cliquer dessus pour voir les observations et prévisions météorologiques.

Pour changer de carte: cliquez sur les boutons verts avec une croix noire pour zoomer, sur le bouton vert avec un tiret pour effectuer un zoom arrière, ou sur les flèches vertes pour les cartes adjacentes.


METAR-TAF: